sensor_id;sensor_type;location;lat;lon;timestamp;temperature;humidity
75786;DHT22;64402;44.708;37.644;2023-09-19T00:00:43;19.20;45.87
75786;DHT22;64402;44.708;37.644;2023-09-19T00:03:10;19.11;46.05
75786;DHT22;64402;44.708;37.644;2023-09-19T00:05:38;19.07;46.07
75786;DHT22;64402;44.708;37.644;2023-09-19T00:08:05;19.03;46.30
75786;DHT22;64402;44.708;37.644;2023-09-19T00:10:33;19.01;46.34
75786;DHT22;64402;44.708;37.644;2023-09-19T00:13:02;18.98;46.25
75786;DHT22;64402;44.708;37.644;2023-09-19T00:15:41;18.94;46.67
75786;DHT22;64402;44.708;37.644;2023-09-19T00:18:08;18.87;46.60
75786;DHT22;64402;44.708;37.644;2023-09-19T00:20:38;18.85;46.80
75786;DHT22;64402;44.708;37.644;2023-09-19T00:23:05;18.84;46.53
75786;DHT22;64402;44.708;37.644;2023-09-19T00:25:31;18.82;46.87
75786;DHT22;64402;44.708;37.644;2023-09-19T00:28:01;18.77;47.12
75786;DHT22;64402;44.708;37.644;2023-09-19T00:30:30;18.73;47.20
75786;DHT22;64402;44.708;37.644;2023-09-19T00:32:56;18.70;47.12
75786;DHT22;64402;44.708;37.644;2023-09-19T00:35:23;18.69;47.32
75786;DHT22;64402;44.708;37.644;2023-09-19T00:37:53;18.66;47.32
75786;DHT22;64402;44.708;37.644;2023-09-19T00:40:22;18.68;47.39
75786;DHT22;64402;44.708;37.644;2023-09-19T00:42:49;18.67;47.06
75786;DHT22;64402;44.708;37.644;2023-09-19T00:45:17;18.73;46.58
75786;DHT22;64402;44.708;37.644;2023-09-19T00:47:45;18.70;46.59
75786;DHT22;64402;44.708;37.644;2023-09-19T00:50:13;18.67;46.76
75786;DHT22;64402;44.708;37.644;2023-09-19T00:52:42;18.65;46.72
75786;DHT22;64402;44.708;37.644;2023-09-19T00:55:09;18.61;46.72
75786;DHT22;64402;44.708;37.644;2023-09-19T00:57:36;18.56;47.05
75786;DHT22;64402;44.708;37.644;2023-09-19T01:00:08;18.50;47.13
75786;DHT22;64402;44.708;37.644;2023-09-19T01:02:38;18.42;47.47
75786;DHT22;64402;44.708;37.644;2023-09-19T01:05:06;18.38;47.56
75786;DHT22;64402;44.708;37.644;2023-09-19T01:07:33;18.39;47.36
75786;DHT22;64402;44.708;37.644;2023-09-19T01:10:03;18.38;47.31
75786;DHT22;64402;44.708;37.644;2023-09-19T01:15:21;18.38;47.28
75786;DHT22;64402;44.708;37.644;2023-09-19T01:17:59;18.36;47.19
75786;DHT22;64402;44.708;37.644;2023-09-19T01:31:59;18.35;47.41
75786;DHT22;64402;44.708;37.644;2023-09-19T01:34:44;18.29;47.75
75786;DHT22;64402;44.708;37.644;2023-09-19T01:37:13;18.27;47.48
75786;DHT22;64402;44.708;37.644;2023-09-19T01:39:52;18.19;48.23
75786;DHT22;64402;44.708;37.644;2023-09-19T01:42:40;18.17;48.23
75786;DHT22;64402;44.708;37.644;2023-09-19T01:50:59;18.22;48.21
75786;DHT22;64402;44.708;37.644;2023-09-19T01:53:33;18.19;48.49
75786;DHT22;64402;44.708;37.644;2023-09-19T01:56:02;18.15;48.51
75786;DHT22;64402;44.708;37.644;2023-09-19T01:58:48;18.12;48.69
75786;DHT22;64402;44.708;37.644;2023-09-19T02:01:20;18.10;48.73
75786;DHT22;64402;44.708;37.644;2023-09-19T02:03:50;18.09;48.70
75786;DHT22;64402;44.708;37.644;2023-09-19T02:06:21;18.08;48.68
75786;DHT22;64402;44.708;37.644;2023-09-19T02:08:47;18.10;49.03
75786;DHT22;64402;44.708;37.644;2023-09-19T02:11:13;18.11;48.83
75786;DHT22;64402;44.708;37.644;2023-09-19T02:13:40;18.10;48.80
75786;DHT22;64402;44.708;37.644;2023-09-19T02:16:07;18.07;48.71
75786;DHT22;64402;44.708;37.644;2023-09-19T02:18:35;18.17;48.09
75786;DHT22;64402;44.708;37.644;2023-09-19T02:21:02;18.25;47.97
75786;DHT22;64402;44.708;37.644;2023-09-19T02:23:30;18.28;47.80
75786;DHT22;64402;44.708;37.644;2023-09-19T02:25:56;18.29;47.92
75786;DHT22;64402;44.708;37.644;2023-09-19T02:28:32;18.25;47.99
75786;DHT22;64402;44.708;37.644;2023-09-19T02:30:58;18.26;47.79
75786;DHT22;64402;44.708;37.644;2023-09-19T02:33:25;18.26;47.79
75786;DHT22;64402;44.708;37.644;2023-09-19T02:35:57;18.29;47.60
75786;DHT22;64402;44.708;37.644;2023-09-19T02:38:26;18.29;47.39
75786;DHT22;64402;44.708;37.644;2023-09-19T02:40:52;18.28;47.70
75786;DHT22;64402;44.708;37.644;2023-09-19T02:43:21;18.30;47.51
75786;DHT22;64402;44.708;37.644;2023-09-19T02:45:48;18.26;47.79
75786;DHT22;64402;44.708;37.644;2023-09-19T02:48:21;18.23;47.96
75786;DHT22;64402;44.708;37.644;2023-09-19T02:50:49;18.22;48.23
75786;DHT22;64402;44.708;37.644;2023-09-19T02:53:15;18.28;47.91
75786;DHT22;64402;44.708;37.644;2023-09-19T02:55:42;18.35;47.60
75786;DHT22;64402;44.708;37.644;2023-09-19T02:58:09;18.33;48.00
75786;DHT22;64402;44.708;37.644;2023-09-19T03:00:37;18.23;48.39
75786;DHT22;64402;44.708;37.644;2023-09-19T03:03:03;18.15;48.53
75786;DHT22;64402;44.708;37.644;2023-09-19T03:05:32;18.11;48.62
75786;DHT22;64402;44.708;37.644;2023-09-19T03:07:58;18.12;48.45
75786;DHT22;64402;44.708;37.644;2023-09-19T03:10:26;18.19;48.36
75786;DHT22;64402;44.708;37.644;2023-09-19T03:12:53;18.20;48.28
75786;DHT22;64402;44.708;37.644;2023-09-19T03:15:20;18.15;48.40
75786;DHT22;64402;44.708;37.644;2023-09-19T03:17:48;18.13;48.37
75786;DHT22;64402;44.708;37.644;2023-09-19T03:20:15;18.10;48.66
75786;DHT22;64402;44.708;37.644;2023-09-19T03:22:45;18.14;48.46
75786;DHT22;64402;44.708;37.644;2023-09-19T03:25:11;18.19;48.53
75786;DHT22;64402;44.708;37.644;2023-09-19T03:27:38;18.26;48.36
75786;DHT22;64402;44.708;37.644;2023-09-19T03:30:04;18.27;48.30
75786;DHT22;64402;44.708;37.644;2023-09-19T03:32:35;18.30;47.97
75786;DHT22;64402;44.708;37.644;2023-09-19T03:35:02;18.29;47.87
75786;DHT22;64402;44.708;37.644;2023-09-19T03:37:31;18.32;47.91
75786;DHT22;64402;44.708;37.644;2023-09-19T03:39:58;18.32;47.98
75786;DHT22;64402;44.708;37.644;2023-09-19T03:42:24;18.30;47.91
75786;DHT22;64402;44.708;37.644;2023-09-19T03:44:52;18.33;47.57
75786;DHT22;64402;44.708;37.644;2023-09-19T03:47:20;18.32;47.92
75786;DHT22;64402;44.708;37.644;2023-09-19T03:49:46;18.29;47.71
75786;DHT22;64402;44.708;37.644;2023-09-19T03:52:12;18.33;47.79
75786;DHT22;64402;44.708;37.644;2023-09-19T03:54:39;18.32;47.67
75786;DHT22;64402;44.708;37.644;2023-09-19T03:57:07;18.32;47.78
75786;DHT22;64402;44.708;37.644;2023-09-19T03:59:33;18.29;48.05
75786;DHT22;64402;44.708;37.644;2023-09-19T04:02:01;18.32;47.87
75786;DHT22;64402;44.708;37.644;2023-09-19T04:04:27;18.33;48.07
75786;DHT22;64402;44.708;37.644;2023-09-19T04:06:55;18.36;47.63
75786;DHT22;64402;44.708;37.644;2023-09-19T04:09:21;18.41;47.40
75786;DHT22;64402;44.708;37.644;2023-09-19T04:11:47;18.43;47.56
75786;DHT22;64402;44.708;37.644;2023-09-19T04:14:15;18.44;47.33
75786;DHT22;64402;44.708;37.644;2023-09-19T04:16:41;18.47;47.53
75786;DHT22;64402;44.708;37.644;2023-09-19T04:19:08;18.52;47.44
75786;DHT22;64402;44.708;37.644;2023-09-19T04:21:34;18.67;45.96
75786;DHT22;64402;44.708;37.644;2023-09-19T04:24:00;18.81;46.31
75786;DHT22;64402;44.708;37.644;2023-09-19T04:26:26;18.84;46.16
75786;DHT22;64402;44.708;37.644;2023-09-19T04:28:52;18.93;45.82
75786;DHT22;64402;44.708;37.644;2023-09-19T04:31:18;18.96;45.93
75786;DHT22;64402;44.708;37.644;2023-09-19T04:33:45;19.03;45.25
75786;DHT22;64402;44.708;37.644;2023-09-19T04:36:11;19.08;45.49
75786;DHT22;64402;44.708;37.644;2023-09-19T04:38:38;19.11;45.64
75786;DHT22;64402;44.708;37.644;2023-09-19T04:41:04;19.14;45.32
75786;DHT22;64402;44.708;37.644;2023-09-19T04:43:31;19.20;44.55
75786;DHT22;64402;44.708;37.644;2023-09-19T04:45:57;19.24;44.87
75786;DHT22;64402;44.708;37.644;2023-09-19T04:48:26;19.31;43.54
75786;DHT22;64402;44.708;37.644;2023-09-19T04:50:52;19.37;43.90
75786;DHT22;64402;44.708;37.644;2023-09-19T04:53:19;19.40;43.75
75786;DHT22;64402;44.708;37.644;2023-09-19T04:55:53;19.45;43.29
75786;DHT22;64402;44.708;37.644;2023-09-19T04:58:22;19.52;42.66
75786;DHT22;64402;44.708;37.644;2023-09-19T05:00:48;19.59;42.80
75786;DHT22;64402;44.708;37.644;2023-09-19T05:03:17;19.70;42.07
75786;DHT22;64402;44.708;37.644;2023-09-19T05:05:43;19.84;40.96
75786;DHT22;64402;44.708;37.644;2023-09-19T05:08:09;19.90;40.33
75786;DHT22;64402;44.708;37.644;2023-09-19T05:10:36;19.99;41.13
75786;DHT22;64402;44.708;37.644;2023-09-19T05:13:05;20.06;39.89
75786;DHT22;64402;44.708;37.644;2023-09-19T05:15:33;20.18;38.96
75786;DHT22;64402;44.708;37.644;2023-09-19T05:18:00;20.28;38.70
75786;DHT22;64402;44.708;37.644;2023-09-19T05:20:26;20.36;38.85
75786;DHT22;64402;44.708;37.644;2023-09-19T05:22:59;20.48;38.66
75786;DHT22;64402;44.708;37.644;2023-09-19T05:25:36;20.54;38.31
75786;DHT22;64402;44.708;37.644;2023-09-19T05:28:04;20.69;38.53
75786;DHT22;64402;44.708;37.644;2023-09-19T05:30:32;20.75;38.30
75786;DHT22;64402;44.708;37.644;2023-09-19T05:32:58;20.87;37.94
75786;DHT22;64402;44.708;37.644;2023-09-19T05:35:25;20.99;38.00
75786;DHT22;64402;44.708;37.644;2023-09-19T05:37:52;21.08;37.59
75786;DHT22;64402;44.708;37.644;2023-09-19T05:40:20;21.20;36.95
75786;DHT22;64402;44.708;37.644;2023-09-19T05:42:47;21.30;36.79
75786;DHT22;64402;44.708;37.644;2023-09-19T05:45:13;21.38;36.67
75786;DHT22;64402;44.708;37.644;2023-09-19T05:47:40;21.47;36.60
75786;DHT22;64402;44.708;37.644;2023-09-19T05:50:11;21.51;35.82
75786;DHT22;64402;44.708;37.644;2023-09-19T05:52:38;21.60;36.14
75786;DHT22;64402;44.708;37.644;2023-09-19T05:55:05;21.66;36.27
75786;DHT22;64402;44.708;37.644;2023-09-19T05:57:36;21.76;36.26
75786;DHT22;64402;44.708;37.644;2023-09-19T06:00:06;21.84;36.04
75786;DHT22;64402;44.708;37.644;2023-09-19T06:02:37;21.97;35.73
75786;DHT22;64402;44.708;37.644;2023-09-19T06:05:06;22.06;35.31
75786;DHT22;64402;44.708;37.644;2023-09-19T06:07:39;22.16;35.28
75786;DHT22;64402;44.708;37.644;2023-09-19T06:10:06;22.24;35.22
75786;DHT22;64402;44.708;37.644;2023-09-19T06:12:39;22.36;35.16
75786;DHT22;64402;44.708;37.644;2023-09-19T06:15:06;22.43;34.53
75786;DHT22;64402;44.708;37.644;2023-09-19T06:17:34;22.52;33.29
75786;DHT22;64402;44.708;37.644;2023-09-19T06:20:07;22.58;33.76
75786;DHT22;64402;44.708;37.644;2023-09-19T06:22:44;22.66;33.89
75786;DHT22;64402;44.708;37.644;2023-09-19T06:25:12;22.75;33.56
75786;DHT22;64402;44.708;37.644;2023-09-19T06:27:41;22.83;32.85
75786;DHT22;64402;44.708;37.644;2023-09-19T06:30:09;22.88;32.51
75786;DHT22;64402;44.708;37.644;2023-09-19T06:32:37;22.92;32.29
75786;DHT22;64402;44.708;37.644;2023-09-19T06:35:04;23.01;32.30
75786;DHT22;64402;44.708;37.644;2023-09-19T06:37:33;23.14;31.10
75786;DHT22;64402;44.708;37.644;2023-09-19T06:40:00;23.23;31.86
75786;DHT22;64402;44.708;37.644;2023-09-19T06:42:26;23.34;31.23
75786;DHT22;64402;44.708;37.644;2023-09-19T06:44:54;23.43;31.30
75786;DHT22;64402;44.708;37.644;2023-09-19T06:47:20;23.49;31.06
75786;DHT22;64402;44.708;37.644;2023-09-19T06:49:47;23.55;31.04
75786;DHT22;64402;44.708;37.644;2023-09-19T06:52:14;23.59;30.72
75786;DHT22;64402;44.708;37.644;2023-09-19T06:54:41;23.73;30.02
75786;DHT22;64402;44.708;37.644;2023-09-19T06:57:08;23.83;30.20
75786;DHT22;64402;44.708;37.644;2023-09-19T06:59:35;23.90;30.77
75786;DHT22;64402;44.708;37.644;2023-09-19T07:02:03;23.97;30.70
75786;DHT22;64402;44.708;37.644;2023-09-19T07:04:32;24.09;30.05
75786;DHT22;64402;44.708;37.644;2023-09-19T07:06:59;24.19;30.76
75786;DHT22;64402;44.708;37.644;2023-09-19T07:09:25;24.39;30.38
75786;DHT22;64402;44.708;37.644;2023-09-19T07:11:54;25.77;27.18
75786;DHT22;64402;44.708;37.644;2023-09-19T07:14:20;27.86;22.97
75786;DHT22;64402;44.708;37.644;2023-09-19T07:16:46;29.68;20.98
75786;DHT22;64402;44.708;37.644;2023-09-19T07:19:13;30.80;18.90
75786;DHT22;64402;44.708;37.644;2023-09-19T07:21:41;31.73;17.47
75786;DHT22;64402;44.708;37.644;2023-09-19T07:24:08;32.09;16.35
75786;DHT22;64402;44.708;37.644;2023-09-19T07:26:34;32.67;15.66
75786;DHT22;64402;44.708;37.644;2023-09-19T07:29:00;33.78;14.88
75786;DHT22;64402;44.708;37.644;2023-09-19T07:31:30;34.55;14.85
75786;DHT22;64402;44.708;37.644;2023-09-19T07:33:57;34.95;14.06
75786;DHT22;64402;44.708;37.644;2023-09-19T07:36:23;35.41;13.44
75786;DHT22;64402;44.708;37.644;2023-09-19T07:38:50;35.86;13.06
75786;DHT22;64402;44.708;37.644;2023-09-19T07:41:17;36.18;12.88
75786;DHT22;64402;44.708;37.644;2023-09-19T07:43:43;36.58;12.31
75786;DHT22;64402;44.708;37.644;2023-09-19T07:46:10;36.56;12.04
75786;DHT22;64402;44.708;37.644;2023-09-19T07:48:37;36.84;11.48
75786;DHT22;64402;44.708;37.644;2023-09-19T07:51:08;37.18;11.15
75786;DHT22;64402;44.708;37.644;2023-09-19T07:53:35;37.93;10.95
75786;DHT22;64402;44.708;37.644;2023-09-19T07:56:06;38.46;9.34
75786;DHT22;64402;44.708;37.644;2023-09-19T07:58:33;38.96;10.08
75786;DHT22;64402;44.708;37.644;2023-09-19T08:01:07;39.39;8.56
75786;DHT22;64402;44.708;37.644;2023-09-19T08:03:33;40.36;8.56
75786;DHT22;64402;44.708;37.644;2023-09-19T08:06:00;40.18;8.06
75786;DHT22;64402;44.708;37.644;2023-09-19T08:08:27;40.13;8.45
75786;DHT22;64402;44.708;37.644;2023-09-19T08:10:53;40.69;6.90
75786;DHT22;64402;44.708;37.644;2023-09-19T08:13:22;41.33;7.81
75786;DHT22;64402;44.708;37.644;2023-09-19T08:15:49;41.86;7.63
75786;DHT22;64402;44.708;37.644;2023-09-19T08:18:17;42.75;6.57
75786;DHT22;64402;44.708;37.644;2023-09-19T08:20:43;43.12;6.35
75786;DHT22;64402;44.708;37.644;2023-09-19T08:23:15;43.58;6.11
75786;DHT22;64402;44.708;37.644;2023-09-19T08:25:44;43.81;5.58
75786;DHT22;64402;44.708;37.644;2023-09-19T08:28:11;43.76;5.19
75786;DHT22;64402;44.708;37.644;2023-09-19T08:30:38;44.13;4.97
75786;DHT22;64402;44.708;37.644;2023-09-19T08:33:06;44.51;5.02
75786;DHT22;64402;44.708;37.644;2023-09-19T08:35:33;44.03;5.52
75786;DHT22;64402;44.708;37.644;2023-09-19T08:37:59;44.36;5.41
75786;DHT22;64402;44.708;37.644;2023-09-19T08:40:30;44.24;5.06
75786;DHT22;64402;44.708;37.644;2023-09-19T08:42:59;44.23;5.01
75786;DHT22;64402;44.708;37.644;2023-09-19T08:45:27;44.60;4.85
75786;DHT22;64402;44.708;37.644;2023-09-19T08:50:30;45.26;4.41
75786;DHT22;64402;44.708;37.644;2023-09-19T08:53:00;45.35;3.86
75786;DHT22;64402;44.708;37.644;2023-09-19T08:55:28;45.90;3.70
75786;DHT22;64402;44.708;37.644;2023-09-19T08:58:03;46.59;2.21
75786;DHT22;64402;44.708;37.644;2023-09-19T09:00:33;46.90;2.93
75786;DHT22;64402;44.708;37.644;2023-09-19T09:03:03;47.22;2.67
75786;DHT22;64402;44.708;37.644;2023-09-19T09:05:30;46.91;2.54
75786;DHT22;64402;44.708;37.644;2023-09-19T09:07:58;47.08;2.60
75786;DHT22;64402;44.708;37.644;2023-09-19T09:10:26;47.29;2.20
75786;DHT22;64402;44.708;37.644;2023-09-19T09:12:53;47.35;2.06
75786;DHT22;64402;44.708;37.644;2023-09-19T09:15:22;47.22;2.11
75786;DHT22;64402;44.708;37.644;2023-09-19T09:17:50;47.94;1.83
75786;DHT22;64402;44.708;37.644;2023-09-19T09:20:20;48.27;1.35
75786;DHT22;64402;44.708;37.644;2023-09-19T09:22:53;48.54;1.10
75786;DHT22;64402;44.708;37.644;2023-09-19T09:25:21;48.53;1.76
75786;DHT22;64402;44.708;37.644;2023-09-19T09:28:01;49.15;0.96
75786;DHT22;64402;44.708;37.644;2023-09-19T09:30:35;49.38;1.13
75786;DHT22;64402;44.708;37.644;2023-09-19T09:33:11;48.87;0.91
75786;DHT22;64402;44.708;37.644;2023-09-19T09:38:20;50.16;0.66
75786;DHT22;64402;44.708;37.644;2023-09-19T09:40:51;50.01;0.38
75786;DHT22;64402;44.708;37.644;2023-09-19T09:43:35;50.00;0.41
75786;DHT22;64402;44.708;37.644;2023-09-19T09:46:17;49.86;0.21
75786;DHT22;64402;44.708;37.644;2023-09-19T09:48:47;49.36;1.06
75786;DHT22;64402;44.708;37.644;2023-09-19T09:51:33;49.01;1.10
75786;DHT22;64402;44.708;37.644;2023-09-19T09:54:15;49.57;0.29
75786;DHT22;64402;44.708;37.644;2023-09-19T09:56:58;49.93;0.07
75786;DHT22;64402;44.708;37.644;2023-09-19T09:59:54;49.97;0.26
75786;DHT22;64402;44.708;37.644;2023-09-19T10:02:29;50.10;0.42
75786;DHT22;64402;44.708;37.644;2023-09-19T10:04:56;49.98;0.52
75786;DHT22;64402;44.708;37.644;2023-09-19T10:07:33;49.14;0.79
75786;DHT22;64402;44.708;37.644;2023-09-19T10:10:04;49.49;0.67
75786;DHT22;64402;44.708;37.644;2023-09-19T10:12:47;49.63;0.69
75786;DHT22;64402;44.708;37.644;2023-09-19T10:15:18;49.48;0.82
75786;DHT22;64402;44.708;37.644;2023-09-19T10:17:51;49.45;0.94
75786;DHT22;64402;44.708;37.644;2023-09-19T10:20:22;49.46;0.99
75786;DHT22;64402;44.708;37.644;2023-09-19T10:23:00;49.48;0.88
75786;DHT22;64402;44.708;37.644;2023-09-19T10:25:27;48.74;1.19
75786;DHT22;64402;44.708;37.644;2023-09-19T10:28:02;49.56;0.52
75786;DHT22;64402;44.708;37.644;2023-09-19T10:30:31;49.52;0.54
75786;DHT22;64402;44.708;37.644;2023-09-19T10:33:02;49.92;0.57
75786;DHT22;64402;44.708;37.644;2023-09-19T10:35:28;50.24;0.32
75786;DHT22;64402;44.708;37.644;2023-09-19T10:37:59;50.16;0.45
75786;DHT22;64402;44.708;37.644;2023-09-19T10:40:27;50.88;0.17
75786;DHT22;64402;44.708;37.644;2023-09-19T10:43:04;51.31;-0.06
75786;DHT22;64402;44.708;37.644;2023-09-19T10:45:33;51.85;-0.31
75786;DHT22;64402;44.708;37.644;2023-09-19T10:48:03;51.85;-0.17
75786;DHT22;64402;44.708;37.644;2023-09-19T10:50:35;51.55;-0.35
75786;DHT22;64402;44.708;37.644;2023-09-19T10:53:04;51.93;-0.02
75786;DHT22;64402;44.708;37.644;2023-09-19T10:55:34;51.99;-0.26
75786;DHT22;64402;44.708;37.644;2023-09-19T10:58:01;51.97;-0.32
75786;DHT22;64402;44.708;37.644;2023-09-19T11:00:51;51.62;-0.56
75786;DHT22;64402;44.708;37.644;2023-09-19T11:03:18;51.84;-0.29
75786;DHT22;64402;44.708;37.644;2023-09-19T11:08:52;51.97;-0.05
75786;DHT22;64402;44.708;37.644;2023-09-19T11:30:51;52.24;-0.32
75786;DHT22;64402;44.708;37.644;2023-09-19T11:33:28;52.22;-0.29
75786;DHT22;64402;44.708;37.644;2023-09-19T11:43:48;52.45;-0.18
75786;DHT22;64402;44.708;37.644;2023-09-19T11:46:17;52.78;-0.15
75786;DHT22;64402;44.708;37.644;2023-09-19T11:48:48;52.95;-0.27
75786;DHT22;64402;44.708;37.644;2023-09-19T11:51:20;52.44;-0.45
75786;DHT22;64402;44.708;37.644;2023-09-19T11:53:57;51.93;-0.11
75786;DHT22;64402;44.708;37.644;2023-09-19T11:56:27;52.31;-0.16
75786;DHT22;64402;44.708;37.644;2023-09-19T11:58:55;52.17;-0.17
75786;DHT22;64402;44.708;37.644;2023-09-19T12:03:57;52.10;-0.07
75786;DHT22;64402;44.708;37.644;2023-09-19T12:06:25;52.10;-0.22
75786;DHT22;64402;44.708;37.644;2023-09-19T12:08:52;52.40;-0.45
75786;DHT22;64402;44.708;37.644;2023-09-19T12:11:23;52.38;-0.26
75786;DHT22;64402;44.708;37.644;2023-09-19T12:13:51;53.01;-0.50
75786;DHT22;64402;44.708;37.644;2023-09-19T12:16:20;53.20;-0.51
75786;DHT22;64402;44.708;37.644;2023-09-19T12:18:50;52.67;-0.38
75786;DHT22;64402;44.708;37.644;2023-09-19T12:21:30;52.01;-0.39
75786;DHT22;64402;44.708;37.644;2023-09-19T12:24:04;52.40;-0.41
75786;DHT22;64402;44.708;37.644;2023-09-19T12:26:42;52.60;-0.58
75786;DHT22;64402;44.708;37.644;2023-09-19T12:29:21;52.76;-0.57
75786;DHT22;64402;44.708;37.644;2023-09-19T12:31:58;52.10;-0.05
75786;DHT22;64402;44.708;37.644;2023-09-19T12:34:27;51.87;-0.03
75786;DHT22;64402;44.708;37.644;2023-09-19T12:37:08;51.68;0.03
75786;DHT22;64402;44.708;37.644;2023-09-19T12:39:45;51.53;-0.06
75786;DHT22;64402;44.708;37.644;2023-09-19T12:42:16;51.91;0.03
75786;DHT22;64402;44.708;37.644;2023-09-19T12:44:48;51.46;-0.10
75786;DHT22;64402;44.708;37.644;2023-09-19T12:47:18;51.71;0.12
75786;DHT22;64402;44.708;37.644;2023-09-19T12:50:09;51.77;0.15
75786;DHT22;64402;44.708;37.644;2023-09-19T12:52:40;51.51;0.13
75786;DHT22;64402;44.708;37.644;2023-09-19T12:55:07;51.24;0.26
75786;DHT22;64402;44.708;37.644;2023-09-19T12:57:35;51.33;0.39
75786;DHT22;64402;44.708;37.644;2023-09-19T13:00:02;51.02;0.42
75786;DHT22;64402;44.708;37.644;2023-09-19T13:02:29;51.36;0.32
75786;DHT22;64402;44.708;37.644;2023-09-19T13:04:56;51.51;0.04
75786;DHT22;64402;44.708;37.644;2023-09-19T13:07:45;51.13;0.15
75786;DHT22;64402;44.708;37.644;2023-09-19T13:10:13;50.93;0.34
75786;DHT22;64402;44.708;37.644;2023-09-19T13:12:43;50.83;0.33
75786;DHT22;64402;44.708;37.644;2023-09-19T13:15:14;51.02;0.26
75786;DHT22;64402;44.708;37.644;2023-09-19T13:17:46;51.19;0.31
75786;DHT22;64402;44.708;37.644;2023-09-19T13:20:26;50.72;0.44
75786;DHT22;64402;44.708;37.644;2023-09-19T13:22:58;50.90;0.32
75786;DHT22;64402;44.708;37.644;2023-09-19T13:25:35;50.34;0.66
75786;DHT22;64402;44.708;37.644;2023-09-19T13:28:01;50.53;0.65
75786;DHT22;64402;44.708;37.644;2023-09-19T13:30:30;50.58;0.76
75786;DHT22;64402;44.708;37.644;2023-09-19T13:33:06;49.76;1.03
75786;DHT22;64402;44.708;37.644;2023-09-19T13:35:33;49.73;1.14
75786;DHT22;64402;44.708;37.644;2023-09-19T13:37:59;49.52;1.06
75786;DHT22;64402;44.708;37.644;2023-09-19T13:40:26;49.26;1.12
75786;DHT22;64402;44.708;37.644;2023-09-19T13:42:56;49.08;1.58
75786;DHT22;64402;44.708;37.644;2023-09-19T13:45:22;48.97;1.52
75786;DHT22;64402;44.708;37.644;2023-09-19T13:47:50;48.96;1.56
75786;DHT22;64402;44.708;37.644;2023-09-19T13:50:16;48.53;1.80
75786;DHT22;64402;44.708;37.644;2023-09-19T13:52:52;48.39;1.79
75786;DHT22;64402;44.708;37.644;2023-09-19T13:55:19;47.69;2.04
75786;DHT22;64402;44.708;37.644;2023-09-19T13:57:49;47.70;2.00
75786;DHT22;64402;44.708;37.644;2023-09-19T14:00:22;47.13;2.46
75786;DHT22;64402;44.708;37.644;2023-09-19T14:02:48;46.49;2.79
75786;DHT22;64402;44.708;37.644;2023-09-19T14:05:15;46.18;2.91
75786;DHT22;64402;44.708;37.644;2023-09-19T14:07:43;45.83;3.14
75786;DHT22;64402;44.708;37.644;2023-09-19T14:10:10;45.99;3.06
75786;DHT22;64402;44.708;37.644;2023-09-19T14:12:39;45.41;3.63
75786;DHT22;64402;44.708;37.644;2023-09-19T14:15:09;45.57;3.41
75786;DHT22;64402;44.708;37.644;2023-09-19T14:17:37;45.31;3.36
75786;DHT22;64402;44.708;37.644;2023-09-19T14:20:03;45.44;3.44
75786;DHT22;64402;44.708;37.644;2023-09-19T14:22:31;44.81;3.64
75786;DHT22;64402;44.708;37.644;2023-09-19T14:24:57;44.29;4.15
75786;DHT22;64402;44.708;37.644;2023-09-19T14:27:25;43.67;4.46
75786;DHT22;64402;44.708;37.644;2023-09-19T14:29:51;43.38;4.69
75786;DHT22;64402;44.708;37.644;2023-09-19T14:32:17;43.08;4.76
75786;DHT22;64402;44.708;37.644;2023-09-19T14:34:43;42.39;5.28
75786;DHT22;64402;44.708;37.644;2023-09-19T14:37:10;42.13;5.59
75786;DHT22;64402;44.708;37.644;2023-09-19T14:39:37;42.15;5.60
75786;DHT22;64402;44.708;37.644;2023-09-19T14:42:06;41.75;5.96
75786;DHT22;64402;44.708;37.644;2023-09-19T14:44:32;41.50;6.15
75786;DHT22;64402;44.708;37.644;2023-09-19T14:46:58;41.13;6.62
75786;DHT22;64402;44.708;37.644;2023-09-19T14:49:25;41.01;6.63
75786;DHT22;64402;44.708;37.644;2023-09-19T14:51:52;40.63;6.87
75786;DHT22;64402;44.708;37.644;2023-09-19T14:54:18;40.26;7.27
75786;DHT22;64402;44.708;37.644;2023-09-19T14:56:45;39.62;7.88
75786;DHT22;64402;44.708;37.644;2023-09-19T14:59:11;38.86;8.46
75786;DHT22;64402;44.708;37.644;2023-09-19T15:01:38;38.50;8.89
75786;DHT22;64402;44.708;37.644;2023-09-19T15:04:05;38.07;9.33
75786;DHT22;64402;44.708;37.644;2023-09-19T15:06:32;37.51;9.79
75786;DHT22;64402;44.708;37.644;2023-09-19T15:08:58;37.08;10.25
75786;DHT22;64402;44.708;37.644;2023-09-19T15:11:25;36.51;10.86
75786;DHT22;64402;44.708;37.644;2023-09-19T15:13:52;35.45;12.03
75786;DHT22;64402;44.708;37.644;2023-09-19T15:16:22;34.26;13.48
75786;DHT22;64402;44.708;37.644;2023-09-19T15:18:48;33.17;14.77
75786;DHT22;64402;44.708;37.644;2023-09-19T15:21:15;32.33;16.01
75786;DHT22;64402;44.708;37.644;2023-09-19T15:23:43;31.73;16.98
75786;DHT22;64402;44.708;37.644;2023-09-19T15:26:14;31.21;17.90
75786;DHT22;64402;44.708;37.644;2023-09-19T15:28:46;30.76;18.25
75786;DHT22;64402;44.708;37.644;2023-09-19T15:31:14;30.40;18.93
75786;DHT22;64402;44.708;37.644;2023-09-19T15:33:40;30.00;20.20
75786;DHT22;64402;44.708;37.644;2023-09-19T15:36:10;29.68;19.98
75786;DHT22;64402;44.708;37.644;2023-09-19T15:38:56;29.34;21.80
75786;DHT22;64402;44.708;37.644;2023-09-19T15:41:31;29.05;22.11
75786;DHT22;64402;44.708;37.644;2023-09-19T15:43:59;28.77;22.42
75786;DHT22;64402;44.708;37.644;2023-09-19T15:46:31;28.55;23.55
75786;DHT22;64402;44.708;37.644;2023-09-19T15:49:01;28.35;23.32
75786;DHT22;64402;44.708;37.644;2023-09-19T15:51:28;28.10;23.90
75786;DHT22;64402;44.708;37.644;2023-09-19T15:53:55;27.86;24.62
75786;DHT22;64402;44.708;37.644;2023-09-19T15:56:22;27.60;25.27
75786;DHT22;64402;44.708;37.644;2023-09-19T15:58:54;27.32;25.94
75786;DHT22;64402;44.708;37.644;2023-09-19T16:01:21;26.95;26.03
75786;DHT22;64402;44.708;37.644;2023-09-19T16:03:49;26.70;26.29
75786;DHT22;64402;44.708;37.644;2023-09-19T16:06:20;26.52;26.95
75786;DHT22;64402;44.708;37.644;2023-09-19T16:08:51;26.26;27.37
75786;DHT22;64402;44.708;37.644;2023-09-19T16:11:18;26.06;27.93
75786;DHT22;64402;44.708;37.644;2023-09-19T16:13:48;25.80;28.71
75786;DHT22;64402;44.708;37.644;2023-09-19T16:16:16;25.63;28.83
75786;DHT22;64402;44.708;37.644;2023-09-19T16:18:46;25.50;29.62
75786;DHT22;64402;44.708;37.644;2023-09-19T16:21:18;25.35;29.32
75786;DHT22;64402;44.708;37.644;2023-09-19T16:23:50;25.24;30.30
75786;DHT22;64402;44.708;37.644;2023-09-19T16:26:17;25.06;30.71
75786;DHT22;64402;44.708;37.644;2023-09-19T16:28:49;24.88;30.90
75786;DHT22;64402;44.708;37.644;2023-09-19T16:31:15;24.66;31.09